Sharurah, Saudi Arabia
Current Conditions -  °F | °C
As of 7:00 AM on Tuesday 23 Dec 2014 (Local Time) from OESH Reporting Station
Clear Clear  
Wind Chill: 55°   Ceiling: Unl
Heat Index: 55°   Visibility: 6mi
Dew Point: 34°   Wind: 5mph
Humidity: 44%   Direction: 330°NNW
Pressure: 30.09"   Gusts: NA
Location:  17.49°N, 47.08°E
Report Text: OESH 230400Z 33004KT CAVOK 13/01 Q1019 NOSIG
Loading
Personal Weather Stations






























Interactive Weather Map New forecast layout! Learn more

10-Day Weather Forecast

Advertisements
Track Severe Weather on mobile